createdAt,value
2019-05-02T00:00:36.516Z,67.53
2019-05-02T00:03:10.784Z,67.97
2019-05-02T00:05:44.342Z,68.22
2019-05-02T00:08:14.911Z,67.72
2019-05-02T00:10:49.731Z,70.03
2019-05-02T00:13:21.421Z,69.20
2019-05-02T00:15:51.725Z,65.40
2019-05-02T00:18:22.065Z,66.22
2019-05-02T00:20:51.875Z,67.85
2019-05-02T00:26:00.934Z,64.62
2019-05-02T00:28:36.978Z,66.42
2019-05-02T00:31:11.578Z,65.22
2019-05-02T00:33:39.802Z,66.42
2019-05-02T00:36:09.481Z,70.22
2019-05-02T00:38:41.078Z,68.80
2019-05-02T00:41:10.732Z,66.10
2019-05-02T00:43:40.533Z,70.42
2019-05-02T00:48:46.261Z,65.55
2019-05-02T00:51:15.660Z,65.37
2019-05-02T00:53:48.298Z,64.92
2019-05-02T00:56:21.294Z,68.22
2019-05-02T00:59:07.481Z,67.55
2019-05-02T01:01:40.247Z,67.25
2019-05-02T01:04:27.549Z,71.33
2019-05-02T01:06:57.876Z,65.65
2019-05-02T01:09:27.520Z,67.90
2019-05-02T01:14:44.715Z,67.30
2019-05-02T01:17:17.443Z,66.70
2019-05-02T01:19:52.698Z,66.25
2019-05-02T01:22:26.840Z,66.15
2019-05-02T01:24:57.242Z,64.40
2019-05-02T01:27:41.008Z,65.75
2019-05-02T01:33:26.529Z,65.28
2019-05-02T01:36:08.336Z,66.05
2019-05-02T01:38:50.373Z,67.30
2019-05-02T01:41:16.919Z,64.32
2019-05-02T01:43:54.999Z,66.07
2019-05-02T01:46:26.224Z,65.70
2019-05-02T01:51:36.762Z,67.90
2019-05-02T01:54:10.078Z,64.72
2019-05-02T01:56:42.034Z,66.82
2019-05-02T01:59:11.847Z,71.22
2019-05-02T02:04:22.247Z,66.57
2019-05-02T02:06:50.574Z,69.10
2019-05-02T02:09:21.371Z,69.35
2019-05-02T02:11:53.950Z,68.15
2019-05-02T02:14:23.910Z,65.45
2019-05-02T02:16:59.252Z,68.33
2019-05-02T02:19:39.128Z,70.85
2019-05-02T02:22:14.079Z,65.05
2019-05-02T02:25:01.016Z,69.22
2019-05-02T02:27:42.177Z,67.45
2019-05-02T02:30:17.495Z,69.12
2019-05-02T02:32:52.040Z,66.67
2019-05-02T02:35:31.223Z,67.40
2019-05-02T02:38:03.609Z,69.85
2019-05-02T02:40:35.708Z,66.92
2019-05-02T02:43:30.536Z,67.05
2019-05-02T02:46:00.045Z,66.92
2019-05-02T02:48:40.532Z,70.03
2019-05-02T02:51:09.188Z,67.22
2019-05-02T02:53:42.277Z,70.22
2019-05-02T02:56:11.384Z,66.10
2019-05-02T02:58:46.299Z,66.75
2019-05-02T03:01:27.679Z,70.20
2019-05-02T03:03:48.664Z,65.83
2019-05-02T03:06:18.192Z,68.75
2019-05-02T03:08:51.228Z,72.15
2019-05-02T03:11:29.593Z,72.82
2019-05-02T03:14:07.237Z,69.35
2019-05-02T03:16:47.102Z,68.95
2019-05-02T03:19:21.059Z,70.92
2019-05-02T03:22:01.214Z,67.27
2019-05-02T03:24:27.295Z,67.55
2019-05-02T03:26:58.714Z,70.55
2019-05-02T03:29:43.854Z,70.55
2019-05-02T03:32:16.280Z,68.72
2019-05-02T03:34:51.845Z,73.07
2019-05-02T03:37:14.794Z,75.78
2019-05-02T03:39:49.398Z,71.90
2019-05-02T03:42:19.339Z,68.97
2019-05-02T03:44:56.416Z,74.32
2019-05-02T03:47:23.989Z,75.10
2019-05-02T03:49:58.842Z,73.17
2019-05-02T03:52:36.613Z,74.37
2019-05-02T03:55:12.510Z,75.05
2019-05-02T03:57:42.533Z,77.22
2019-05-02T04:00:13.988Z,74.62
2019-05-02T04:02:44.271Z,76.25
2019-05-02T04:07:53.309Z,75.67
2019-05-02T04:10:52.529Z,76.10
2019-05-02T04:13:30.058Z,76.50
2019-05-02T04:15:59.406Z,73.47
2019-05-02T04:18:30.439Z,72.95
2019-05-02T04:21:07.751Z,69.72
2019-05-02T04:23:39.200Z,76.22
2019-05-02T04:26:12.847Z,74.05
2019-05-02T04:28:45.384Z,72.00
2019-05-02T04:31:15.821Z,75.12
2019-05-02T04:33:47.716Z,73.60
2019-05-02T04:36:19.108Z,72.75
2019-05-02T04:38:52.514Z,73.35
2019-05-02T04:41:28.799Z,72.87
2019-05-02T04:43:57.478Z,73.17
2019-05-02T04:46:30.960Z,74.95
2019-05-02T04:48:58.895Z,72.75
2019-05-02T04:51:31.916Z,73.07
2019-05-02T04:54:00.904Z,72.55
2019-05-02T04:56:31.081Z,73.87
2019-05-02T04:59:16.546Z,74.25
2019-05-02T05:01:43.470Z,74.27
2019-05-02T05:04:17.922Z,75.95
2019-05-02T05:07:00.905Z,72.15
2019-05-02T05:09:30.060Z,72.92
2019-05-02T05:12:04.607Z,72.17
2019-05-02T05:14:39.115Z,72.85
2019-05-02T05:17:25.094Z,72.22
2019-05-02T05:20:10.889Z,71.82
2019-05-02T05:22:43.858Z,72.08
2019-05-02T05:25:12.323Z,72.75
2019-05-02T05:27:44.084Z,74.67
2019-05-02T05:30:20.868Z,72.72
2019-05-02T05:32:50.502Z,77.08
2019-05-02T05:35:30.269Z,73.62
2019-05-02T05:37:54.839Z,77.50
2019-05-02T05:40:29.487Z,74.97
2019-05-02T05:43:02.701Z,75.57
2019-05-02T05:45:32.108Z,73.85
2019-05-02T05:48:01.396Z,70.72
2019-05-02T05:50:36.664Z,72.08
2019-05-02T05:53:02.645Z,72.10
2019-05-02T05:56:18.033Z,69.05
2019-05-02T05:58:25.107Z,74.95
2019-05-02T06:01:01.069Z,75.65
2019-05-02T06:03:44.646Z,76.05
2019-05-02T06:06:14.794Z,72.30
2019-05-02T06:08:41.445Z,74.00
2019-05-02T06:11:22.326Z,75.05
2019-05-02T06:13:57.493Z,76.30
2019-05-02T06:16:35.378Z,77.20
2019-05-02T06:19:13.026Z,75.15
2019-05-02T06:21:58.509Z,72.80
2019-05-02T06:24:28.245Z,73.92
2019-05-02T06:29:51.095Z,75.20
2019-05-02T06:32:37.766Z,76.72
2019-05-02T06:34:58.423Z,73.85
2019-05-02T06:37:32.369Z,75.20
2019-05-02T06:40:03.116Z,74.95
2019-05-02T06:42:38.033Z,75.20
2019-05-02T06:45:16.281Z,76.12
2019-05-02T06:47:45.045Z,73.90
2019-05-02T06:50:14.569Z,76.07
2019-05-02T06:52:49.915Z,81.40
2019-05-02T06:55:20.374Z,74.25
2019-05-02T06:57:57.129Z,72.60
2019-05-02T07:00:35.726Z,76.00
2019-05-02T07:02:57.174Z,78.37
2019-05-02T07:05:27.351Z,79.95
2019-05-02T07:07:58.184Z,77.72
2019-05-02T07:10:37.885Z,75.55
2019-05-02T07:13:10.739Z,78.80
2019-05-02T07:15:50.651Z,81.32
2019-05-02T07:18:23.794Z,79.45
2019-05-02T07:20:59.294Z,80.65
2019-05-02T07:23:37.709Z,76.30
2019-05-02T07:26:08.641Z,77.47
2019-05-02T07:28:45.058Z,80.75
2019-05-02T07:31:13.915Z,79.65
2019-05-02T07:33:44.403Z,77.75
2019-05-02T07:36:17.366Z,77.00
2019-05-02T07:39:05.026Z,79.62
2019-05-02T07:41:30.288Z,77.80
2019-05-02T07:44:02.876Z,80.67
2019-05-02T07:46:35.438Z,78.30
2019-05-02T07:49:09.009Z,79.00
2019-05-02T07:51:39.466Z,80.12
2019-05-02T07:54:19.354Z,80.77
2019-05-02T07:56:54.682Z,80.53
2019-05-02T07:59:32.259Z,80.20
2019-05-02T08:02:20.200Z,81.05
2019-05-02T08:04:49.114Z,81.65
2019-05-02T08:07:21.550Z,81.30
2019-05-02T08:10:03.815Z,85.22
2019-05-02T08:12:34.011Z,78.40
2019-05-02T08:15:13.186Z,80.07
2019-05-02T08:17:55.210Z,80.10
2019-05-02T08:20:27.439Z,82.10
2019-05-02T08:22:56.656Z,76.72
2019-05-02T08:25:27.507Z,79.37
2019-05-02T08:27:58.457Z,76.30
2019-05-02T08:30:35.333Z,80.60
2019-05-02T08:33:19.561Z,81.60
2019-05-02T08:35:55.249Z,78.67
2019-05-02T08:38:27.404Z,81.53
2019-05-02T08:40:58.715Z,82.47
2019-05-02T08:43:31.197Z,79.75
2019-05-02T08:46:23.195Z,82.72
2019-05-02T08:51:13.133Z,81.00
2019-05-02T08:53:44.591Z,81.85
2019-05-02T08:59:10.085Z,78.87
2019-05-02T09:01:44.717Z,79.62
2019-05-02T09:04:15.495Z,80.32
2019-05-02T09:06:47.848Z,76.97
2019-05-02T09:09:28.033Z,83.58
2019-05-02T09:14:27.367Z,77.75
2019-05-02T09:17:00.199Z,77.25
2019-05-02T09:19:34.761Z,79.58
2019-05-02T09:22:13.247Z,81.40
2019-05-02T09:24:46.955Z,81.00
2019-05-02T09:27:22.415Z,77.50
2019-05-02T09:29:55.920Z,79.58
2019-05-02T09:32:32.300Z,80.10
2019-05-02T09:35:06.207Z,83.00
2019-05-02T09:37:33.925Z,82.30
2019-05-02T09:40:06.903Z,82.82
2019-05-02T09:42:36.697Z,84.52
2019-05-02T09:45:12.171Z,79.58
2019-05-02T09:47:56.646Z,81.25
2019-05-02T09:50:20.554Z,82.22
2019-05-02T09:52:52.424Z,81.02
2019-05-02T09:55:23.051Z,82.70
2019-05-02T09:57:55.739Z,83.47
2019-05-02T10:00:32.265Z,81.10
2019-05-02T10:03:02.660Z,81.95
2019-05-02T10:05:43.053Z,81.78
2019-05-02T10:08:10.743Z,81.80
2019-05-02T10:10:45.793Z,85.03
2019-05-02T10:13:15.996Z,81.92
2019-05-02T10:15:46.729Z,81.85
2019-05-02T10:18:30.025Z,81.53
2019-05-02T10:20:58.326Z,82.33
2019-05-02T10:23:39.478Z,79.12
2019-05-02T10:26:14.655Z,81.65
2019-05-02T10:28:56.519Z,81.42
2019-05-02T10:31:41.956Z,81.08
2019-05-02T10:34:16.325Z,81.90
2019-05-02T10:36:45.212Z,78.85
2019-05-02T10:39:15.763Z,81.60
2019-05-02T10:41:46.747Z,81.70
2019-05-02T10:44:19.335Z,80.12
2019-05-02T10:46:56.452Z,81.42
2019-05-02T10:49:33.218Z,81.85
2019-05-02T10:52:04.539Z,81.80
2019-05-02T10:54:37.500Z,81.42
2019-05-02T10:57:05.852Z,82.53
2019-05-02T10:59:36.218Z,82.45
2019-05-02T11:02:12.885Z,80.32
2019-05-02T11:04:44.146Z,81.28
2019-05-02T11:07:17.215Z,82.17
2019-05-02T11:09:46.074Z,81.32
2019-05-02T11:12:23.963Z,78.05
2019-05-02T11:14:56.711Z,79.60
2019-05-02T11:17:32.436Z,79.58
2019-05-02T11:20:07.701Z,76.87
2019-05-02T11:22:42.864Z,79.70
2019-05-02T11:25:14.126Z,84.72
2019-05-02T11:27:44.576Z,81.02
2019-05-02T11:30:22.295Z,82.85
2019-05-02T11:32:52.016Z,79.32
2019-05-02T11:35:23.226Z,86.50
2019-05-02T11:37:56.694Z,85.57
2019-05-02T11:40:28.151Z,76.62
2019-05-02T11:43:02.782Z,71.60
2019-05-02T11:45:36.354Z,67.10
2019-05-02T11:48:09.612Z,66.15
2019-05-02T11:50:37.525Z,68.12
2019-05-02T11:53:22.310Z,72.35
2019-05-02T11:55:45.763Z,67.80
2019-05-02T11:58:15.548Z,70.47
2019-05-02T12:03:32.808Z,68.70
2019-05-02T12:06:01.978Z,67.80
2019-05-02T12:08:47.700Z,68.80
2019-05-02T12:11:13.955Z,68.45
2019-05-02T12:13:47.236Z,68.02
2019-05-02T12:16:16.327Z,71.17
2019-05-02T12:18:50.502Z,69.90
2019-05-02T12:21:22.951Z,66.37
2019-05-02T12:23:57.356Z,68.02
2019-05-02T12:26:28.536Z,67.08
2019-05-02T12:29:02.541Z,68.83
2019-05-02T12:31:42.757Z,70.12
2019-05-02T12:34:28.633Z,69.30
2019-05-02T12:36:55.585Z,69.25
2019-05-02T12:39:42.534Z,69.35
2019-05-02T12:42:12.945Z,67.72
2019-05-02T12:44:43.677Z,71.00
2019-05-02T12:47:17.653Z,70.28
2019-05-02T12:49:49.312Z,67.58
2019-05-02T12:52:27.629Z,68.57
2019-05-02T12:54:56.785Z,67.90
2019-05-02T12:57:38.953Z,70.12
2019-05-02T13:00:02.875Z,70.30
2019-05-02T13:02:32.631Z,70.35
2019-05-02T13:05:07.346Z,70.65
2019-05-02T13:07:37.796Z,71.50
2019-05-02T13:10:11.819Z,71.53
2019-05-02T13:12:45.459Z,70.37
2019-05-02T13:15:17.699Z,76.70
2019-05-02T13:17:52.193Z,70.28
2019-05-02T13:20:25.071Z,73.22
2019-05-02T13:23:06.065Z,71.65
2019-05-02T13:25:42.394Z,71.62
2019-05-02T13:28:17.164Z,74.20
2019-05-02T13:31:07.893Z,73.12
2019-05-02T13:33:57.954Z,71.80
2019-05-02T13:36:43.817Z,72.82
2019-05-02T13:39:38.435Z,73.10
2019-05-02T13:42:06.217Z,70.72
2019-05-02T13:44:49.098Z,67.37
2019-05-02T13:47:24.983Z,73.35
2019-05-02T13:50:00.883Z,68.17
2019-05-02T13:52:28.903Z,68.47
2019-05-02T13:55:07.678Z,69.60
2019-05-02T13:57:47.144Z,67.07
2019-05-02T14:00:19.909Z,68.25
2019-05-02T14:02:54.302Z,69.92
2019-05-02T14:05:31.751Z,68.97
2019-05-02T14:08:27.539Z,67.78
2019-05-02T14:11:01.943Z,66.87
2019-05-02T14:13:32.451Z,69.62
2019-05-02T14:16:13.142Z,66.72
2019-05-02T14:18:47.280Z,69.60
2019-05-02T14:21:20.001Z,67.82
2019-05-02T14:23:54.003Z,68.02
2019-05-02T14:26:30.279Z,69.10
2019-05-02T14:29:00.035Z,65.30
2019-05-02T14:31:29.142Z,68.97
2019-05-02T14:34:16.217Z,64.87
2019-05-02T14:36:58.905Z,73.15
2019-05-02T14:39:25.227Z,68.95
2019-05-02T14:44:50.782Z,66.50
2019-05-02T14:46:59.407Z,64.25
2019-05-02T14:49:45.079Z,71.14
2019-05-02T14:52:18.635Z,66.05
2019-05-02T14:54:49.546Z,66.57
2019-05-02T14:57:27.123Z,66.57
2019-05-02T14:59:59.073Z,74.97
2019-05-02T15:02:39.183Z,66.57
2019-05-02T15:05:12.684Z,68.97
2019-05-02T15:07:42.834Z,80.30
2019-05-02T15:10:13.564Z,69.50
2019-05-02T15:12:58.960Z,69.55
2019-05-02T15:15:28.035Z,69.70
2019-05-02T15:17:56.976Z,73.28
2019-05-02T15:20:36.568Z,71.02
2019-05-02T15:23:02.660Z,73.52
2019-05-02T15:25:38.126Z,67.25
2019-05-02T15:28:22.853Z,68.85
2019-05-02T15:31:11.702Z,77.82
2019-05-02T15:33:42.491Z,73.05
2019-05-02T15:36:14.574Z,68.62
2019-05-02T15:38:47.259Z,65.42
2019-05-02T15:41:22.876Z,70.55
2019-05-02T15:43:52.935Z,70.80
2019-05-02T15:46:28.127Z,74.40
2019-05-02T15:49:07.322Z,66.55
2019-05-02T15:51:38.059Z,76.02
2019-05-02T15:54:12.381Z,79.97
2019-05-02T15:57:03.683Z,69.77
2019-05-02T15:59:45.054Z,64.47
2019-05-02T16:02:17.507Z,66.50
2019-05-02T16:04:48.289Z,74.20
2019-05-02T16:07:22.494Z,61.83
2019-05-02T16:10:01.178Z,72.50
2019-05-02T16:12:35.974Z,65.85
2019-05-02T16:15:13.592Z,67.45
2019-05-02T16:17:39.077Z,61.58
2019-05-02T16:20:33.723Z,66.50
2019-05-02T16:23:02.556Z,61.45
2019-05-02T16:25:37.041Z,73.42
2019-05-02T16:28:10.186Z,63.02
2019-05-02T16:30:47.583Z,70.10
2019-05-02T16:33:20.741Z,63.00
2019-05-02T16:35:53.471Z,67.55
2019-05-02T16:38:26.800Z,64.95
2019-05-02T16:40:56.368Z,70.32
2019-05-02T16:43:34.657Z,65.75
2019-05-02T16:46:06.553Z,61.83
2019-05-02T16:48:37.757Z,61.25
2019-05-02T16:51:27.688Z,65.33
2019-05-02T16:53:37.780Z,60.73
2019-05-02T16:56:19.349Z,65.47
2019-05-02T16:58:48.869Z,62.60
2019-05-02T17:01:26.579Z,58.63
2019-05-02T17:03:49.393Z,62.55
2019-05-02T17:06:22.464Z,61.10
2019-05-02T17:08:59.141Z,64.37
2019-05-02T17:11:41.956Z,60.58
2019-05-02T17:14:12.070Z,68.45
2019-05-02T17:16:42.120Z,64.27
2019-05-02T17:19:12.310Z,67.78
2019-05-02T17:21:53.952Z,61.15
2019-05-02T17:24:22.672Z,63.50
2019-05-02T17:26:53.666Z,61.70
2019-05-02T17:29:28.911Z,63.13
2019-05-02T17:31:59.352Z,66.00
2019-05-02T17:34:30.784Z,60.73
2019-05-02T17:37:06.223Z,60.08
2019-05-02T17:39:31.105Z,62.45
2019-05-02T17:42:06.379Z,66.77
2019-05-02T17:44:35.500Z,66.33
2019-05-02T17:47:05.025Z,65.47
2019-05-02T17:49:42.670Z,66.46
2019-05-02T17:52:19.774Z,60.23
2019-05-02T17:54:47.019Z,69.42
2019-05-02T17:57:16.170Z,64.65
2019-05-02T17:59:45.609Z,71.53
2019-05-02T18:02:16.021Z,59.05
2019-05-02T18:04:46.554Z,61.65
2019-05-02T18:07:18.122Z,59.98
2019-05-02T18:09:46.964Z,66.22
2019-05-02T18:12:16.392Z,61.65
2019-05-02T18:14:45.823Z,67.67
2019-05-02T18:17:14.932Z,60.12
2019-05-02T18:19:44.494Z,66.92
2019-05-02T18:22:26.234Z,68.50
2019-05-02T18:24:57.862Z,64.47
2019-05-02T18:27:26.969Z,58.58
2019-05-02T18:29:56.083Z,60.75
2019-05-02T18:32:26.324Z,65.15
2019-05-02T18:34:56.829Z,62.90
2019-05-02T18:37:27.059Z,58.95
2019-05-02T18:39:56.159Z,58.48
2019-05-02T18:42:25.715Z,61.08
2019-05-02T18:44:58.256Z,67.53
2019-05-02T18:47:29.809Z,60.38
2019-05-02T18:50:06.236Z,61.42
2019-05-02T18:52:42.913Z,60.78
2019-05-02T18:55:09.868Z,61.77
2019-05-02T18:57:38.991Z,60.90
2019-05-02T19:00:12.216Z,74.85
2019-05-02T19:02:42.448Z,63.68
2019-05-02T19:05:19.269Z,60.55
2019-05-02T19:07:47.375Z,61.33
2019-05-02T19:10:15.571Z,69.82
2019-05-02T19:12:44.712Z,58.40
2019-05-02T19:15:15.733Z,66.17
2019-05-02T19:17:44.835Z,63.50
2019-05-02T19:20:28.953Z,69.05
2019-05-02T19:22:58.076Z,63.55
2019-05-02T19:25:27.196Z,60.08
2019-05-02T19:27:59.358Z,58.42
2019-05-02T19:30:32.972Z,59.55
2019-05-02T19:33:07.652Z,67.47
2019-05-02T19:35:37.676Z,63.08
2019-05-02T19:38:17.121Z,59.42
2019-05-02T19:40:44.060Z,60.90
2019-05-02T19:43:14.798Z,59.13
2019-05-02T19:45:45.805Z,57.60
2019-05-02T19:48:14.933Z,58.38
2019-05-02T19:50:44.237Z,59.55
2019-05-02T19:53:18.026Z,58.30
2019-05-02T19:55:44.234Z,57.38
2019-05-02T19:58:13.335Z,59.90
2019-05-02T20:00:46.249Z,59.18
2019-05-02T20:03:21.395Z,57.98
2019-05-02T20:05:44.348Z,58.60
2019-05-02T20:08:14.846Z,60.70
2019-05-02T20:10:44.265Z,59.03
2019-05-02T20:13:13.376Z,56.98
2019-05-02T20:15:44.153Z,59.00
2019-05-02T20:18:13.275Z,58.52
2019-05-02T20:21:05.017Z,58.20
2019-05-02T20:23:35.654Z,57.85
2019-05-02T20:26:09.410Z,58.58
2019-05-02T20:28:36.388Z,58.40
2019-05-02T20:31:05.587Z,58.90
2019-05-02T20:33:34.704Z,59.35
2019-05-02T20:36:04.068Z,60.80
2019-05-02T20:38:33.433Z,59.38
2019-05-02T20:41:02.991Z,59.50
2019-05-02T20:43:32.435Z,58.58
2019-05-02T20:46:02.602Z,59.27
2019-05-02T20:48:32.337Z,60.23
2019-05-02T20:51:02.662Z,58.65
2019-05-02T20:53:34.226Z,58.02
2019-05-02T20:56:03.334Z,59.38
2019-05-02T20:58:32.694Z,57.98
2019-05-02T21:01:07.712Z,59.75
2019-05-02T21:03:32.700Z,58.25
2019-05-02T21:06:06.330Z,58.40
2019-05-02T21:08:41.908Z,58.80
2019-05-02T21:11:20.148Z,64.67
2019-05-02T21:13:49.303Z,58.95
2019-05-02T21:16:28.466Z,64.62
2019-05-02T21:19:01.898Z,66.85
2019-05-02T21:21:32.469Z,59.10
2019-05-02T21:24:24.626Z,70.37
2019-05-02T21:26:45.160Z,59.80
2019-05-02T21:29:14.396Z,58.85
2019-05-02T21:31:44.096Z,62.05
2019-05-02T21:34:13.355Z,56.55
2019-05-02T21:36:44.830Z,56.23
2019-05-02T21:39:14.063Z,58.15
2019-05-02T21:41:43.324Z,55.95
2019-05-02T21:44:13.116Z,57.55
2019-05-02T21:46:42.608Z,56.10
2019-05-02T21:49:15.039Z,59.27
2019-05-02T21:51:53.183Z,57.53
2019-05-02T21:54:38.381Z,64.50
2019-05-02T21:57:13.287Z,58.13
2019-05-02T21:59:42.620Z,55.63
2019-05-02T22:02:12.592Z,56.88
2019-05-02T22:04:54.398Z,58.45
2019-05-02T22:07:19.252Z,56.55
2019-05-02T22:09:48.414Z,57.55
2019-05-02T22:12:17.582Z,57.50
2019-05-02T22:14:52.761Z,57.25
2019-05-02T22:17:21.572Z,55.78
2019-05-02T22:22:19.193Z,56.28
2019-05-02T22:24:48.387Z,57.15
2019-05-02T22:27:29.616Z,61.90
2019-05-02T22:29:58.755Z,56.90
2019-05-02T22:32:27.924Z,55.75
2019-05-02T22:34:57.085Z,55.23
2019-05-02T22:37:26.410Z,56.13
2019-05-02T22:39:57.208Z,55.88
2019-05-02T22:42:26.371Z,56.63
2019-05-02T22:44:55.572Z,56.98
2019-05-02T22:47:24.992Z,56.55
2019-05-02T22:49:54.149Z,55.90
2019-05-02T22:52:23.347Z,55.03
2019-05-02T22:54:52.527Z,58.08
2019-05-02T22:57:22.547Z,55.75
2019-05-02T22:59:51.876Z,55.20
2019-05-02T23:02:22.001Z,55.73
2019-05-02T23:04:52.629Z,54.65
2019-05-02T23:07:22.716Z,54.83
2019-05-02T23:12:24.806Z,54.63
2019-05-02T23:14:53.005Z,56.92
2019-05-02T23:17:23.182Z,55.40
2019-05-02T23:19:52.848Z,56.05
2019-05-02T23:22:22.178Z,55.25
2019-05-02T23:24:52.980Z,55.28
2019-05-02T23:27:23.781Z,55.58
2019-05-02T23:29:53.246Z,55.60
2019-05-02T23:32:23.834Z,54.98
2019-05-02T23:34:53.057Z,55.78
2019-05-02T23:37:22.290Z,55.08
2019-05-02T23:39:52.275Z,54.75
2019-05-02T23:42:21.935Z,54.15
2019-05-02T23:44:51.890Z,55.88
2019-05-02T23:47:22.434Z,55.55
2019-05-02T23:49:52.162Z,55.03
2019-05-02T23:52:22.450Z,54.60
2019-05-02T23:54:52.558Z,55.95
2019-05-02T23:57:22.986Z,54.15
2019-05-02T23:59:52.292Z,54.77
